createdAt,value
2018-02-07T00:00:05.620Z,-0.82
2018-02-07T00:01:05.613Z,-0.82
2018-02-07T00:02:05.600Z,-0.80
2018-02-07T00:03:05.589Z,-0.75
2018-02-07T00:04:05.579Z,-0.85
2018-02-07T00:05:05.572Z,-0.94
2018-02-07T00:06:05.560Z,-0.97
2018-02-07T00:07:05.550Z,-0.90
2018-02-07T00:08:05.541Z,-0.89
2018-02-07T00:09:05.528Z,-0.94
2018-02-07T00:10:05.519Z,-0.96
2018-02-07T00:11:05.509Z,-0.96
2018-02-07T00:12:05.497Z,-0.93
2018-02-07T00:13:05.487Z,-0.94
2018-02-07T00:14:05.478Z,-0.94
2018-02-07T00:15:05.469Z,-0.96
2018-02-07T00:16:05.457Z,-0.97
2018-02-07T00:17:05.448Z,-0.99
2018-02-07T00:18:05.436Z,-1.02
2018-02-07T00:19:05.427Z,-1.05
2018-02-07T00:20:05.415Z,-1.07
2018-02-07T00:21:05.405Z,-1.14
2018-02-07T00:22:05.395Z,-1.05
2018-02-07T00:23:05.385Z,-1.12
2018-02-07T00:24:05.374Z,-1.09
2018-02-07T00:25:05.364Z,-1.09
2018-02-07T00:26:05.355Z,-1.20
2018-02-07T00:27:05.350Z,-1.17
2018-02-07T00:28:05.334Z,-1.15
2018-02-07T00:29:05.329Z,-1.19
2018-02-07T00:30:05.313Z,-1.12
2018-02-07T00:31:05.302Z,-1.20
2018-02-07T00:32:05.291Z,-1.19
2018-02-07T00:33:05.281Z,-1.25
2018-02-07T00:34:05.272Z,-1.12
2018-02-07T00:35:05.260Z,-1.19
2018-02-07T00:36:05.250Z,-1.22
2018-02-07T00:37:05.240Z,-1.08
2018-02-07T00:38:05.229Z,-1.20
2018-02-07T00:39:05.219Z,-1.20
2018-02-07T00:40:05.209Z,-1.23
2018-02-07T00:41:05.197Z,-1.12
2018-02-07T00:42:05.188Z,-1.12
2018-02-07T00:43:05.179Z,-1.23
2018-02-07T00:44:05.167Z,-1.19
2018-02-07T00:45:05.155Z,-1.19
2018-02-07T00:46:05.145Z,-1.23
2018-02-07T00:47:05.135Z,-1.23
2018-02-07T00:48:05.125Z,-1.22
2018-02-07T00:49:05.114Z,-1.25
2018-02-07T00:50:05.104Z,-1.35
2018-02-07T00:51:08.098Z,-1.25
2018-02-07T00:52:05.082Z,-1.30
2018-02-07T00:53:05.073Z,-1.38
2018-02-07T00:54:05.061Z,-1.32
2018-02-07T00:55:05.051Z,-1.26
2018-02-07T00:56:05.040Z,-1.30
2018-02-07T00:57:05.031Z,-1.33
2018-02-07T00:58:05.020Z,-1.44
2018-02-07T00:59:05.009Z,-1.40
2018-02-07T01:00:04.999Z,-1.44
2018-02-07T01:01:04.988Z,-1.46
2018-02-07T01:02:04.978Z,-1.38
2018-02-07T01:03:04.967Z,-1.40
2018-02-07T01:04:04.955Z,-1.40
2018-02-07T01:05:04.945Z,-1.41
2018-02-07T01:06:04.938Z,-1.41
2018-02-07T01:07:04.926Z,-1.37
2018-02-07T01:08:04.921Z,-1.40
2018-02-07T01:09:04.904Z,-1.44
2018-02-07T01:10:04.894Z,-1.43
2018-02-07T01:11:04.883Z,-1.47
2018-02-07T01:12:04.871Z,-1.54
2018-02-07T01:13:04.860Z,-1.48
2018-02-07T01:14:04.852Z,-1.46
2018-02-07T01:15:04.840Z,-1.54
2018-02-07T01:16:04.828Z,-1.59
2018-02-07T01:17:04.818Z,-1.65
2018-02-07T01:18:04.817Z,-1.53
2018-02-07T01:19:04.799Z,-1.69
2018-02-07T01:20:04.786Z,-1.62
2018-02-07T01:21:04.776Z,-1.62
2018-02-07T01:22:04.765Z,-1.65
2018-02-07T01:23:04.755Z,-1.69
2018-02-07T01:24:04.743Z,-1.62
2018-02-07T01:25:04.734Z,-1.64
2018-02-07T01:26:04.723Z,-1.61
2018-02-07T01:27:04.713Z,-1.65
2018-02-07T01:28:04.700Z,-1.65
2018-02-07T01:29:04.690Z,-1.64
2018-02-07T01:30:04.680Z,-1.68
2018-02-07T01:31:04.671Z,-1.80
2018-02-07T01:32:04.658Z,-1.72
2018-02-07T01:33:04.647Z,-1.84
2018-02-07T01:34:04.635Z,-1.83
2018-02-07T01:35:04.626Z,-1.82
2018-02-07T01:36:04.618Z,-1.83
2018-02-07T01:37:04.605Z,-1.80
2018-02-07T01:38:04.593Z,-1.83
2018-02-07T01:39:04.585Z,-1.80
2018-02-07T01:40:04.577Z,-1.87
2018-02-07T01:41:04.565Z,-1.84
2018-02-07T01:42:04.550Z,-1.83
2018-02-07T01:43:04.540Z,-1.89
2018-02-07T01:44:04.530Z,-1.84
2018-02-07T01:45:04.519Z,-1.79
2018-02-07T01:46:04.507Z,-1.80
2018-02-07T01:47:04.496Z,-1.80
2018-02-07T01:48:04.487Z,-1.80
2018-02-07T01:49:04.475Z,-1.77
2018-02-07T01:50:04.464Z,-1.82
2018-02-07T01:51:04.454Z,-1.83
2018-02-07T01:52:04.444Z,-1.82
2018-02-07T01:53:04.432Z,-1.89
2018-02-07T01:54:04.420Z,-1.83
2018-02-07T01:55:04.410Z,-1.89
2018-02-07T01:56:04.399Z,-1.80
2018-02-07T01:57:04.391Z,-1.83
2018-02-07T01:58:04.378Z,-1.89
2018-02-07T01:59:04.366Z,-1.87
2018-02-07T02:00:04.356Z,-1.90
2018-02-07T02:01:04.344Z,-1.87
2018-02-07T02:02:04.334Z,-1.92
2018-02-07T02:03:04.323Z,-1.95
2018-02-07T02:04:04.316Z,-1.92
2018-02-07T02:05:04.301Z,-1.97
2018-02-07T02:06:04.291Z,-1.94
2018-02-07T02:07:04.281Z,-1.92
2018-02-07T02:08:04.268Z,-1.89
2018-02-07T02:09:04.258Z,-1.94
2018-02-07T02:10:04.247Z,-1.87
2018-02-07T02:11:04.236Z,-1.87
2018-02-07T02:12:04.226Z,-1.95
2018-02-07T02:13:04.215Z,-1.92
2018-02-07T02:14:04.204Z,-1.89
2018-02-07T02:15:04.192Z,-1.82
2018-02-07T02:16:04.181Z,-1.82
2018-02-07T02:17:04.172Z,-1.79
2018-02-07T02:18:04.161Z,-1.90
2018-02-07T02:19:04.150Z,-1.72
2018-02-07T02:20:04.138Z,-1.74
2018-02-07T02:21:04.127Z,-1.76
2018-02-07T02:22:04.118Z,-1.74
2018-02-07T02:23:04.108Z,-1.72
2018-02-07T02:24:04.096Z,-1.68
2018-02-07T02:25:04.084Z,-1.65
2018-02-07T02:26:04.074Z,-1.69
2018-02-07T02:27:04.064Z,-1.62
2018-02-07T02:28:04.053Z,-1.62
2018-02-07T02:29:04.044Z,-1.66
2018-02-07T02:30:04.032Z,-1.59
2018-02-07T02:31:04.021Z,-1.62
2018-02-07T02:32:04.010Z,-1.59
2018-02-07T02:33:03.999Z,-1.54
2018-02-07T02:34:03.989Z,-1.58
2018-02-07T02:35:03.980Z,-1.71
2018-02-07T02:36:03.967Z,-1.62
2018-02-07T02:37:03.961Z,-1.58
2018-02-07T02:38:03.948Z,-1.64
2018-02-07T02:39:03.936Z,-1.62
2018-02-07T02:40:03.923Z,-1.68
2018-02-07T02:41:03.912Z,-1.64
2018-02-07T02:42:03.903Z,-1.66
2018-02-07T02:43:03.892Z,-1.69
2018-02-07T02:44:03.880Z,-1.77
2018-02-07T02:45:03.871Z,-1.71
2018-02-07T02:46:03.861Z,-1.74
2018-02-07T02:47:03.850Z,-1.74
2018-02-07T02:48:03.840Z,-1.69
2018-02-07T02:49:03.828Z,-1.65
2018-02-07T02:50:03.818Z,-1.74
2018-02-07T02:51:03.808Z,-1.76
2018-02-07T02:52:03.795Z,-1.80
2018-02-07T02:53:03.784Z,-1.71
2018-02-07T02:54:03.774Z,-1.74
2018-02-07T02:55:03.765Z,-1.69
2018-02-07T02:56:03.751Z,-1.74
2018-02-07T02:57:03.741Z,-1.76
2018-02-07T02:58:03.731Z,-1.80
2018-02-07T02:59:03.722Z,-1.71
2018-02-07T03:00:03.710Z,-1.77
2018-02-07T03:01:03.699Z,-1.74
2018-02-07T03:02:03.689Z,-1.72
2018-02-07T03:03:03.727Z,-1.83
2018-02-07T03:04:03.666Z,-1.80
2018-02-07T03:05:03.656Z,-1.77
2018-02-07T03:06:03.645Z,-1.74
2018-02-07T03:07:03.636Z,-1.89
2018-02-07T03:08:03.624Z,-1.83
2018-02-07T03:09:03.613Z,-1.86
2018-02-07T03:10:03.602Z,-1.82
2018-02-07T03:11:03.592Z,-1.84
2018-02-07T03:12:03.580Z,-1.84
2018-02-07T03:13:03.570Z,-1.89
2018-02-07T03:14:03.558Z,-1.89
2018-02-07T03:15:03.550Z,-1.77
2018-02-07T03:16:03.538Z,-1.83
2018-02-07T03:17:03.528Z,-1.76
2018-02-07T03:18:03.515Z,-1.83
2018-02-07T03:19:03.505Z,-1.87
2018-02-07T03:20:03.494Z,-1.79
2018-02-07T03:21:03.483Z,-1.82
2018-02-07T03:22:03.473Z,-1.83
2018-02-07T03:23:03.463Z,-1.90
2018-02-07T03:24:03.465Z,-1.89
2018-02-07T03:25:03.440Z,-1.89
2018-02-07T03:26:03.431Z,-1.82
2018-02-07T03:27:03.419Z,-1.89
2018-02-07T03:28:03.409Z,-1.82
2018-02-07T03:29:03.398Z,-1.82
2018-02-07T03:30:03.388Z,-1.86
2018-02-07T03:31:03.376Z,-1.89
2018-02-07T03:32:03.365Z,-1.87
2018-02-07T03:33:03.354Z,-1.94
2018-02-07T03:34:03.343Z,-1.90
2018-02-07T03:35:03.332Z,-1.87
2018-02-07T03:36:03.322Z,-1.87
2018-02-07T03:37:03.312Z,-1.84
2018-02-07T03:38:03.300Z,-1.87
2018-02-07T03:39:03.290Z,-1.87
2018-02-07T03:40:03.286Z,-1.89
2018-02-07T03:41:03.270Z,-1.94
2018-02-07T03:42:03.259Z,-1.90
2018-02-07T03:43:03.246Z,-2.00
2018-02-07T03:44:03.235Z,-1.98
2018-02-07T03:45:03.226Z,-1.90
2018-02-07T03:46:03.214Z,-1.89
2018-02-07T03:47:03.204Z,-2.00
2018-02-07T03:48:03.192Z,-1.92
2018-02-07T03:49:03.181Z,-2.01
2018-02-07T03:50:03.172Z,-1.90
2018-02-07T03:51:03.161Z,-1.87
2018-02-07T03:52:03.150Z,-1.89
2018-02-07T03:53:03.139Z,-1.90
2018-02-07T03:54:03.128Z,-1.89
2018-02-07T03:55:03.117Z,-1.83
2018-02-07T03:56:03.105Z,-1.97
2018-02-07T03:57:03.095Z,-1.94
2018-02-07T03:58:03.085Z,-1.94
2018-02-07T03:59:03.075Z,-2.04
2018-02-07T04:00:03.062Z,-1.98
2018-02-07T04:01:03.051Z,-1.94
2018-02-07T04:02:03.041Z,-1.90
2018-02-07T04:03:03.031Z,-1.87
2018-02-07T04:04:03.020Z,-1.90
2018-02-07T04:05:03.009Z,-1.89
2018-02-07T04:06:02.999Z,-1.89
2018-02-07T04:07:02.987Z,-1.92
2018-02-07T04:08:02.975Z,-1.87
2018-02-07T04:09:02.966Z,-1.86
2018-02-07T04:10:02.955Z,-1.83
2018-02-07T04:11:02.944Z,-1.89
2018-02-07T04:12:02.932Z,-1.90
2018-02-07T04:13:02.922Z,-1.89
2018-02-07T04:14:02.913Z,-1.87
2018-02-07T04:15:02.902Z,-1.97
2018-02-07T04:16:02.888Z,-1.95
2018-02-07T04:17:02.879Z,-1.94
2018-02-07T04:18:02.868Z,-1.95
2018-02-07T04:19:02.857Z,-1.90
2018-02-07T04:20:02.845Z,-1.98
2018-02-07T04:21:02.837Z,-1.94
2018-02-07T04:22:02.824Z,-1.84
2018-02-07T04:23:02.813Z,-1.98
2018-02-07T04:24:02.801Z,-1.97
2018-02-07T04:25:02.793Z,-2.02
2018-02-07T04:26:02.783Z,-1.97
2018-02-07T04:27:02.770Z,-1.92
2018-02-07T04:28:02.757Z,-2.01
2018-02-07T04:29:02.747Z,-2.00
2018-02-07T04:30:02.741Z,-2.05
2018-02-07T04:31:02.727Z,-1.97
2018-02-07T04:32:02.715Z,-2.01
2018-02-07T04:33:02.704Z,-2.01
2018-02-07T04:34:02.695Z,-2.01
2018-02-07T04:35:02.682Z,-2.04
2018-02-07T04:36:02.670Z,-1.98
2018-02-07T04:37:02.660Z,-2.04
2018-02-07T04:38:02.649Z,-2.05
2018-02-07T04:39:02.639Z,-1.97
2018-02-07T04:40:02.628Z,-2.10
2018-02-07T04:41:02.616Z,-2.05
2018-02-07T04:42:02.605Z,-2.05
2018-02-07T04:43:02.595Z,-2.08
2018-02-07T04:44:02.582Z,-2.07
2018-02-07T04:45:02.572Z,-2.02
2018-02-07T04:46:02.563Z,-2.12
2018-02-07T04:47:02.550Z,-2.05
2018-02-07T04:48:02.540Z,-2.12
2018-02-07T04:49:02.532Z,-2.13
2018-02-07T04:50:02.518Z,-2.13
2018-02-07T04:51:02.505Z,-2.12
2018-02-07T04:52:02.494Z,-2.15
2018-02-07T04:53:02.482Z,-2.22
2018-02-07T04:54:02.473Z,-2.12
2018-02-07T04:55:02.463Z,-2.12
2018-02-07T04:56:02.449Z,-2.16
2018-02-07T04:57:02.440Z,-2.16
2018-02-07T04:58:02.429Z,-2.16
2018-02-07T04:59:02.416Z,-2.18
2018-02-07T05:00:02.405Z,-2.22
2018-02-07T05:01:02.395Z,-2.12
2018-02-07T05:02:02.385Z,-2.23
2018-02-07T05:03:02.374Z,-2.19
2018-02-07T05:04:02.361Z,-2.22
2018-02-07T05:05:02.350Z,-2.32
2018-02-07T05:06:02.339Z,-2.30
2018-02-07T05:07:02.328Z,-2.25
2018-02-07T05:08:02.316Z,-2.37
2018-02-07T05:09:02.306Z,-2.25
2018-02-07T05:10:02.296Z,-2.28
2018-02-07T05:11:02.286Z,-2.26
2018-02-07T05:12:02.273Z,-2.28
2018-02-07T05:13:02.262Z,-2.41
2018-02-07T05:14:02.250Z,-2.37
2018-02-07T05:15:02.239Z,-2.45
2018-02-07T05:16:02.227Z,-2.44
2018-02-07T05:17:02.217Z,-2.50
2018-02-07T05:18:02.206Z,-2.52
2018-02-07T05:19:02.230Z,-2.60
2018-02-07T05:20:02.181Z,-2.48
2018-02-07T05:21:02.172Z,-2.52
2018-02-07T05:22:02.160Z,-2.55
2018-02-07T05:23:02.150Z,-2.66
2018-02-07T05:24:02.137Z,-2.70
2018-02-07T05:25:02.126Z,-2.69
2018-02-07T05:26:02.115Z,-2.76
2018-02-07T05:27:02.104Z,-2.80
2018-02-07T05:28:02.093Z,-2.81
2018-02-07T05:29:02.082Z,-2.77
2018-02-07T05:30:02.073Z,-2.78
2018-02-07T05:31:02.062Z,-2.74
2018-02-07T05:32:02.046Z,-2.78
2018-02-07T05:33:02.036Z,-2.81
2018-02-07T05:34:02.025Z,-2.88
2018-02-07T05:35:02.014Z,-2.92
2018-02-07T05:36:02.002Z,-2.86
2018-02-07T05:37:01.989Z,-2.97
2018-02-07T05:38:01.978Z,-2.83
2018-02-07T05:39:01.967Z,-2.98
2018-02-07T05:40:01.955Z,-2.98
2018-02-07T05:41:01.943Z,-2.88
2018-02-07T05:42:01.932Z,-2.95
2018-02-07T05:43:01.927Z,-2.99
2018-02-07T05:44:01.908Z,-2.88
2018-02-07T05:45:01.897Z,-2.89
2018-02-07T05:46:01.886Z,-2.94
2018-02-07T05:47:01.874Z,-3.02
2018-02-07T05:48:01.862Z,-3.07
2018-02-07T05:49:01.851Z,-3.09
2018-02-07T05:50:01.840Z,-3.09
2018-02-07T05:51:01.828Z,-3.04
2018-02-07T05:52:01.824Z,-3.07
2018-02-07T05:53:01.805Z,-3.07
2018-02-07T05:54:01.791Z,-3.10
2018-02-07T05:55:01.780Z,-3.06
2018-02-07T05:56:01.768Z,-3.13
2018-02-07T05:57:01.756Z,-3.12
2018-02-07T05:58:01.746Z,-3.17
2018-02-07T05:59:01.732Z,-3.20
2018-02-07T06:00:01.722Z,-3.22
2018-02-07T06:01:01.755Z,-3.25
2018-02-07T06:02:01.697Z,-3.27
2018-02-07T06:03:01.692Z,-3.25
2018-02-07T06:04:01.673Z,-3.19
2018-02-07T06:05:01.680Z,-3.28
2018-02-07T06:06:01.651Z,-3.22
2018-02-07T06:07:01.638Z,-3.20
2018-02-07T06:08:01.625Z,-3.22
2018-02-07T06:09:01.614Z,-3.28
2018-02-07T06:10:01.604Z,-3.30
2018-02-07T06:11:01.591Z,-3.37
2018-02-07T06:12:01.577Z,-3.28
2018-02-07T06:13:01.566Z,-3.25
2018-02-07T06:14:01.554Z,-3.31
2018-02-07T06:15:01.543Z,-3.28
2018-02-07T06:16:01.530Z,-3.28
2018-02-07T06:17:01.517Z,-3.31
2018-02-07T06:18:01.508Z,-3.27
2018-02-07T06:19:01.495Z,-3.33
2018-02-07T06:20:01.484Z,-3.31
2018-02-07T06:21:01.471Z,-3.31
2018-02-07T06:22:01.459Z,-3.34
2018-02-07T06:23:01.447Z,-3.33
2018-02-07T06:24:01.434Z,-3.40
2018-02-07T06:25:01.422Z,-3.34
2018-02-07T06:26:01.411Z,-3.40
2018-02-07T06:27:01.399Z,-3.28
2018-02-07T06:28:01.386Z,-3.27
2018-02-07T06:29:01.374Z,-3.22
2018-02-07T06:30:01.364Z,-3.28
2018-02-07T06:31:01.353Z,-3.28
2018-02-07T06:32:01.340Z,-3.33
2018-02-07T06:33:01.328Z,-3.34
2018-02-07T06:34:01.316Z,-3.27
2018-02-07T06:35:01.304Z,-3.23
2018-02-07T06:36:01.290Z,-3.20
2018-02-07T06:37:01.278Z,-3.22
2018-02-07T06:38:01.266Z,-3.19
2018-02-07T06:39:01.256Z,-3.19
2018-02-07T06:40:01.242Z,-3.28
2018-02-07T06:41:01.236Z,-3.23
2018-02-07T06:42:01.220Z,-3.25
2018-02-07T06:43:01.208Z,-3.31
2018-02-07T06:44:01.194Z,-3.38
2018-02-07T06:45:01.183Z,-3.38
2018-02-07T06:46:01.171Z,-3.35
2018-02-07T06:47:01.158Z,-3.37
2018-02-07T06:48:01.147Z,-3.35
2018-02-07T06:49:01.135Z,-3.35
2018-02-07T06:50:01.122Z,-3.37
2018-02-07T06:51:01.109Z,-3.40
2018-02-07T06:52:01.097Z,-3.35
2018-02-07T06:53:01.086Z,-3.35
2018-02-07T06:54:01.073Z,-3.33
2018-02-07T06:55:01.062Z,-3.30
2018-02-07T06:56:01.050Z,-3.38
2018-02-07T06:57:01.037Z,-3.23
2018-02-07T06:58:01.025Z,-3.23
2018-02-07T06:59:01.013Z,-3.22
2018-02-07T07:00:01.001Z,-3.27
2018-02-07T07:01:00.990Z,-3.28
2018-02-07T07:02:00.977Z,-3.37
2018-02-07T07:03:00.966Z,-3.34
2018-02-07T07:04:00.952Z,-3.38
2018-02-07T07:05:00.941Z,-3.33
2018-02-07T07:06:00.928Z,-3.31
2018-02-07T07:07:00.916Z,-3.34
2018-02-07T07:08:00.903Z,-3.33
2018-02-07T07:09:00.893Z,-3.34
2018-02-07T07:10:00.881Z,-3.34
2018-02-07T07:11:00.869Z,-3.38
2018-02-07T07:12:00.855Z,-3.40
2018-02-07T07:13:00.845Z,-3.40
2018-02-07T07:14:00.832Z,-3.35
2018-02-07T07:15:00.822Z,-3.44
2018-02-07T07:16:00.807Z,-3.37
2018-02-07T07:17:00.795Z,-3.37
2018-02-07T07:18:00.783Z,-3.45
2018-02-07T07:19:00.771Z,-3.40
2018-02-07T07:20:00.759Z,-3.38
2018-02-07T07:21:00.747Z,-3.38
2018-02-07T07:22:00.734Z,-3.35
2018-02-07T07:23:00.722Z,-3.45
2018-02-07T07:24:00.710Z,-3.37
2018-02-07T07:25:00.697Z,-3.40
2018-02-07T07:26:00.687Z,-3.40
2018-02-07T07:27:00.673Z,-3.40
2018-02-07T07:28:00.661Z,-3.35
2018-02-07T07:29:00.649Z,-3.40
2018-02-07T07:30:00.637Z,-3.40
2018-02-07T07:31:00.626Z,-3.27
2018-02-07T07:32:00.613Z,-3.28
2018-02-07T07:33:00.602Z,-3.28
2018-02-07T07:34:00.588Z,-3.38
2018-02-07T07:35:00.577Z,-3.35
2018-02-07T07:36:00.565Z,-3.38
2018-02-07T07:37:00.552Z,-3.44
2018-02-07T07:38:00.541Z,-3.41
2018-02-07T07:39:00.530Z,-3.38
2018-02-07T07:40:00.515Z,-3.40
2018-02-07T07:41:00.503Z,-3.40
2018-02-07T07:42:00.493Z,-3.38
2018-02-07T07:43:00.480Z,-3.41
2018-02-07T07:44:00.467Z,-3.37
2018-02-07T07:45:00.456Z,-3.40
2018-02-07T07:46:00.443Z,-3.40
2018-02-07T07:47:00.431Z,-3.41
2018-02-07T07:48:00.419Z,-3.38
2018-02-07T07:49:00.408Z,-3.37
2018-02-07T07:50:00.395Z,-3.35
2018-02-07T07:51:00.384Z,-3.35
2018-02-07T07:52:00.370Z,-3.35
2018-02-07T07:53:00.358Z,-3.40
2018-02-07T07:54:00.346Z,-3.35
2018-02-07T07:55:00.335Z,-3.35
2018-02-07T07:56:00.321Z,-3.30
2018-02-07T07:57:00.309Z,-3.19
2018-02-07T07:58:00.299Z,-3.22
2018-02-07T07:59:00.287Z,-3.13
2018-02-07T08:00:00.273Z,-3.12
2018-02-07T08:01:00.262Z,-2.99
2018-02-07T08:02:00.252Z,-2.99
2018-02-07T08:03:00.238Z,-3.04
2018-02-07T08:04:00.225Z,-2.95
2018-02-07T08:05:00.212Z,-2.99
2018-02-07T08:06:00.201Z,-2.97
2018-02-07T08:07:00.190Z,-2.83
2018-02-07T08:08:00.176Z,-2.86
2018-02-07T08:09:00.166Z,-2.78
2018-02-07T08:10:00.153Z,-2.81
2018-02-07T08:11:00.159Z,-2.77
2018-02-07T08:12:00.132Z,-2.77
2018-02-07T08:13:00.117Z,-2.73
2018-02-07T08:14:00.107Z,-2.59
2018-02-07T08:15:00.095Z,-2.58
2018-02-07T08:16:00.081Z,-2.56
2018-02-07T08:17:00.070Z,-2.47
2018-02-07T08:18:00.059Z,-2.48
2018-02-07T08:19:00.047Z,-2.45
2018-02-07T08:20:00.040Z,-2.42
2018-02-07T08:21:00.025Z,-2.45
2018-02-07T08:22:00.016Z,-2.41
2018-02-07T08:23:00.000Z,-2.37
2018-02-07T08:23:59.987Z,-2.32
2018-02-07T08:24:59.975Z,-2.38
2018-02-07T08:25:59.962Z,-2.25
2018-02-07T08:26:59.952Z,-2.30
2018-02-07T08:27:59.940Z,-2.23
2018-02-07T08:28:59.931Z,-2.22
2018-02-07T08:29:59.916Z,-2.23
2018-02-07T08:30:59.908Z,-2.19
2018-02-07T08:31:59.892Z,-2.16
2018-02-07T08:32:59.882Z,-2.08
2018-02-07T08:33:59.871Z,-2.15
2018-02-07T08:34:59.859Z,-2.01
2018-02-07T08:35:59.846Z,-2.07
2018-02-07T08:36:59.836Z,-1.98
2018-02-07T08:37:59.825Z,-1.90
2018-02-07T08:38:59.814Z,-1.95
2018-02-07T08:39:59.802Z,-1.83
2018-02-07T08:40:59.789Z,-1.74
2018-02-07T08:41:59.779Z,-1.87
2018-02-07T08:42:59.806Z,-1.86
2018-02-07T08:43:59.754Z,-1.53
2018-02-07T08:44:59.744Z,-1.61
2018-02-07T08:45:59.732Z,-1.65
2018-02-07T08:46:59.721Z,-1.61
2018-02-07T08:47:59.710Z,-1.59
2018-02-07T08:48:59.699Z,-1.50
2018-02-07T08:49:59.686Z,-1.53
2018-02-07T08:50:59.677Z,-1.44
2018-02-07T08:51:59.665Z,-1.48
2018-02-07T08:52:59.654Z,-1.51
2018-02-07T08:53:59.641Z,-1.56
2018-02-07T08:54:59.632Z,-1.53
2018-02-07T08:55:59.618Z,-1.56
2018-02-07T08:56:59.608Z,-1.56
2018-02-07T08:57:59.596Z,-1.61
2018-02-07T08:58:59.585Z,-1.61
2018-02-07T08:59:59.575Z,-1.51
2018-02-07T09:00:59.567Z,-1.56
2018-02-07T09:01:59.552Z,-1.54
2018-02-07T09:02:59.541Z,-1.50
2018-02-07T09:03:59.532Z,-1.40
2018-02-07T09:04:59.518Z,-1.30
2018-02-07T09:05:59.507Z,-1.32
2018-02-07T09:06:59.496Z,-1.25
2018-02-07T09:07:59.486Z,-1.27
2018-02-07T09:08:59.473Z,-1.29
2018-02-07T09:09:59.463Z,-1.26
2018-02-07T09:10:59.452Z,-1.23
2018-02-07T09:11:59.441Z,-1.17
2018-02-07T09:12:59.430Z,-1.15
2018-02-07T09:13:59.419Z,-1.05
2018-02-07T09:14:59.410Z,-1.09
2018-02-07T09:15:59.397Z,-1.01
2018-02-07T09:16:59.385Z,-0.96
2018-02-07T09:17:59.375Z,-1.04
2018-02-07T09:18:59.366Z,-0.94
2018-02-07T09:19:59.352Z,-1.02
2018-02-07T09:20:59.341Z,-0.90
2018-02-07T09:21:59.335Z,-1.01
2018-02-07T09:22:59.321Z,-0.91
2018-02-07T09:23:59.310Z,-0.94
2018-02-07T09:24:59.298Z,-0.89
2018-02-07T09:25:59.289Z,-0.72
2018-02-07T09:26:59.278Z,-0.83
2018-02-07T09:27:59.269Z,-0.72
2018-02-07T09:28:59.255Z,-0.77
2018-02-07T09:29:59.247Z,-0.80
2018-02-07T09:30:59.235Z,-0.80
2018-02-07T09:31:59.223Z,-0.74
2018-02-07T09:32:59.212Z,-0.72
2018-02-07T09:33:59.203Z,-0.67
2018-02-07T09:34:59.191Z,-0.70
2018-02-07T09:35:59.182Z,-0.77
2018-02-07T09:36:59.170Z,-0.67
2018-02-07T09:37:59.160Z,-0.65
2018-02-07T09:38:59.150Z,-0.50
2018-02-07T09:39:59.138Z,-0.61
2018-02-07T09:40:59.125Z,-0.56
2018-02-07T09:41:59.116Z,-0.53
2018-02-07T09:42:59.107Z,-0.43
2018-02-07T09:43:59.094Z,-0.39
2018-02-07T09:44:59.085Z,-0.52
2018-02-07T09:45:59.075Z,-0.39
2018-02-07T09:46:59.063Z,-0.46
2018-02-07T09:47:59.054Z,-0.32
2018-02-07T09:48:59.044Z,-0.29
2018-02-07T09:49:59.034Z,-0.32
2018-02-07T09:50:59.023Z,-0.31
2018-02-07T09:51:59.011Z,-0.17
2018-02-07T09:52:59.005Z,-0.15
2018-02-07T09:53:58.990Z,-0.25
2018-02-07T09:54:58.979Z,-0.21
2018-02-07T09:55:58.968Z,-0.21
2018-02-07T09:56:58.958Z,-0.11
2018-02-07T09:57:58.949Z,-0.08
2018-02-07T09:58:58.955Z,-0.11
2018-02-07T09:59:58.927Z,-0.06
2018-02-07T10:00:58.917Z,-0.06
2018-02-07T10:01:58.908Z,0.04
2018-02-07T10:02:58.897Z,0.12
2018-02-07T10:03:58.887Z,0.21
2018-02-07T10:04:58.882Z,0.26
2018-02-07T10:05:58.865Z,0.26
2018-02-07T10:06:58.857Z,0.26
2018-02-07T10:07:58.845Z,0.31
2018-02-07T10:08:58.836Z,0.22
2018-02-07T10:09:58.824Z,0.10
2018-02-07T10:10:58.815Z,0.31
2018-02-07T10:11:58.807Z,0.28
2018-02-07T10:12:58.795Z,0.36
2018-02-07T10:13:58.785Z,0.31
2018-02-07T10:14:58.776Z,0.40
2018-02-07T10:15:58.765Z,0.66
2018-02-07T10:16:58.755Z,1.30
2018-02-07T10:17:58.744Z,2.32
2018-02-07T10:18:58.737Z,3.13
2018-02-07T10:19:58.726Z,3.92
2018-02-07T10:20:58.716Z,4.80
2018-02-07T10:21:58.710Z,5.10
2018-02-07T10:22:58.700Z,4.89
2018-02-07T10:23:58.692Z,4.59
2018-02-07T10:24:58.684Z,4.52
2018-02-07T10:25:58.679Z,5.04
2018-02-07T10:26:58.672Z,4.84
2018-02-07T10:27:58.665Z,4.94
2018-02-07T10:28:58.658Z,5.30
2018-02-07T10:29:58.653Z,5.47
2018-02-07T10:30:58.648Z,6.07
2018-02-07T10:31:58.641Z,5.76
2018-02-07T10:32:58.645Z,5.50
2018-02-07T10:33:58.633Z,5.79
2018-02-07T10:34:58.641Z,5.39
2018-02-07T10:35:58.623Z,5.90
2018-02-07T10:36:58.620Z,6.17
2018-02-07T10:37:58.617Z,6.30
2018-02-07T10:38:58.611Z,6.27
2018-02-07T10:39:58.607Z,5.93
2018-02-07T10:40:58.606Z,6.05
2018-02-07T10:41:58.603Z,6.12
2018-02-07T10:42:58.598Z,6.20
2018-02-07T10:43:58.595Z,6.24
2018-02-07T10:44:58.592Z,6.72
2018-02-07T10:45:58.633Z,6.93
2018-02-07T10:46:58.589Z,6.56
2018-02-07T10:47:58.583Z,6.79
2018-02-07T10:48:58.588Z,7.07
2018-02-07T10:49:58.580Z,6.87
2018-02-07T10:50:58.578Z,6.96
2018-02-07T10:51:58.575Z,7.10
2018-02-07T10:52:58.572Z,6.72
2018-02-07T10:53:58.571Z,6.22
2018-02-07T10:54:58.573Z,5.64
2018-02-07T10:55:58.567Z,5.30
2018-02-07T10:56:58.564Z,5.44
2018-02-07T10:57:58.563Z,5.71
2018-02-07T10:58:58.563Z,5.53
2018-02-07T10:59:58.559Z,5.14
2018-02-07T11:00:58.557Z,5.38
2018-02-07T11:01:58.556Z,5.41
2018-02-07T11:02:58.553Z,5.56
2018-02-07T11:03:58.550Z,5.04
2018-02-07T11:04:58.550Z,4.80
2018-02-07T11:05:58.548Z,3.95
2018-02-07T11:06:58.546Z,4.41
2018-02-07T11:07:58.543Z,4.19
2018-02-07T11:08:58.541Z,4.41
2018-02-07T11:09:58.540Z,4.14
2018-02-07T11:10:58.538Z,4.23
2018-02-07T11:11:58.533Z,3.91
2018-02-07T11:12:58.531Z,3.68
2018-02-07T11:13:58.528Z,3.16
2018-02-07T11:14:58.527Z,2.72
2018-02-07T11:15:58.524Z,2.93
2018-02-07T11:16:58.523Z,3.31
2018-02-07T11:17:58.516Z,3.32
2018-02-07T11:18:58.514Z,3.62
2018-02-07T11:19:58.514Z,3.84
2018-02-07T11:20:58.507Z,3.74
2018-02-07T11:21:58.504Z,3.58
2018-02-07T11:22:58.499Z,3.37
2018-02-07T11:23:58.494Z,3.56
2018-02-07T11:24:58.491Z,3.36
2018-02-07T11:25:58.486Z,3.96
2018-02-07T11:26:58.483Z,3.96
2018-02-07T11:27:58.508Z,4.05
2018-02-07T11:28:58.475Z,4.05
2018-02-07T11:29:58.473Z,4.04
2018-02-07T11:30:58.466Z,3.99
2018-02-07T11:31:58.461Z,3.94
2018-02-07T11:32:58.458Z,3.96
2018-02-07T11:33:58.453Z,4.02
2018-02-07T11:34:58.450Z,4.02
2018-02-07T11:35:58.462Z,3.99
2018-02-07T11:36:58.440Z,3.96
2018-02-07T11:37:58.434Z,3.68
2018-02-07T11:38:58.430Z,3.91
2018-02-07T11:39:58.424Z,4.01
2018-02-07T11:40:58.420Z,3.86
2018-02-07T11:41:58.416Z,3.81
2018-02-07T11:42:58.412Z,3.51
2018-02-07T11:43:58.407Z,3.16
2018-02-07T11:44:58.404Z,3.00
2018-02-07T11:45:58.398Z,2.97
2018-02-07T11:46:58.390Z,2.93
2018-02-07T11:47:58.386Z,2.80
2018-02-07T11:48:58.381Z,2.67
2018-02-07T11:49:58.376Z,2.49
2018-02-07T11:50:58.372Z,2.49
2018-02-07T11:51:58.364Z,2.38
2018-02-07T11:52:58.361Z,2.31
2018-02-07T11:53:58.355Z,2.25
2018-02-07T11:54:58.349Z,2.20
2018-02-07T11:55:58.343Z,2.26
2018-02-07T11:56:58.337Z,2.39
2018-02-07T11:57:58.331Z,2.39
2018-02-07T11:58:58.326Z,2.47
2018-02-07T11:59:58.320Z,2.49
2018-02-07T12:00:58.315Z,2.67
2018-02-07T12:01:58.307Z,2.98
2018-02-07T12:02:58.302Z,3.03
2018-02-07T12:03:58.295Z,2.97
2018-02-07T12:04:58.288Z,2.85
2018-02-07T12:05:58.283Z,2.77
2018-02-07T12:06:58.277Z,2.75
2018-02-07T12:07:58.269Z,2.74
2018-02-07T12:08:58.263Z,2.92
2018-02-07T12:09:58.260Z,3.08
2018-02-07T12:10:58.293Z,3.13
2018-02-07T12:11:58.271Z,2.85
2018-02-07T12:12:58.239Z,2.79
2018-02-07T12:13:58.233Z,2.61
2018-02-07T12:14:58.226Z,2.46
2018-02-07T12:15:58.218Z,2.32
2018-02-07T12:16:58.213Z,2.44
2018-02-07T12:17:58.206Z,2.51
2018-02-07T12:18:58.199Z,2.51
2018-02-07T12:19:58.193Z,2.49
2018-02-07T12:20:58.188Z,2.47
2018-02-07T12:21:58.211Z,2.53
2018-02-07T12:22:58.174Z,2.50
2018-02-07T12:23:58.170Z,2.64
2018-02-07T12:24:58.159Z,2.60
2018-02-07T12:25:58.154Z,2.49
2018-02-07T12:26:58.147Z,2.49
2018-02-07T12:27:58.138Z,2.60
2018-02-07T12:28:58.132Z,2.60
2018-02-07T12:29:58.128Z,3.23
2018-02-07T12:30:58.120Z,3.13
2018-02-07T12:31:58.111Z,3.01
2018-02-07T12:32:58.105Z,2.98
2018-02-07T12:33:58.098Z,2.85
2018-02-07T12:34:58.091Z,2.72
2018-02-07T12:35:58.085Z,2.68
2018-02-07T12:36:58.080Z,2.47
2018-02-07T12:37:58.071Z,2.28
2018-02-07T12:38:58.064Z,2.14
2018-02-07T12:39:58.056Z,2.18
2018-02-07T12:40:58.048Z,1.91
2018-02-07T12:41:58.042Z,2.08
2018-02-07T12:42:58.034Z,2.20
2018-02-07T12:43:58.029Z,2.29
2018-02-07T12:44:58.021Z,2.28
2018-02-07T12:45:58.014Z,2.43
2018-02-07T12:46:58.007Z,2.39
2018-02-07T12:47:57.999Z,2.42
2018-02-07T12:48:57.993Z,2.39
2018-02-07T12:49:57.985Z,2.44
2018-02-07T12:50:57.978Z,2.43
2018-02-07T12:51:57.970Z,2.47
2018-02-07T12:52:57.965Z,2.47
2018-02-07T12:53:57.956Z,2.47
2018-02-07T12:54:57.949Z,2.54
2018-02-07T12:55:57.941Z,2.56
2018-02-07T12:56:57.934Z,2.49
2018-02-07T12:57:57.927Z,2.64